createdAt,value
2023-04-17T00:00:50.967Z,18.44
2023-04-17T00:01:51.018Z,18.44
2023-04-17T00:02:51.182Z,18.45
2023-04-17T00:03:51.287Z,18.45
2023-04-17T00:04:51.225Z,18.45
2023-04-17T00:05:51.128Z,18.45
2023-04-17T00:06:51.148Z,18.46
2023-04-17T00:07:51.181Z,18.45
2023-04-17T00:08:50.197Z,18.45
2023-04-17T00:09:51.239Z,18.46
2023-04-17T00:10:57.035Z,18.45
2023-04-17T00:11:51.264Z,18.46
2023-04-17T00:12:51.253Z,18.46
2023-04-17T00:13:50.269Z,18.46
2023-04-17T00:14:51.262Z,18.46
2023-04-17T00:15:50.249Z,18.46
2023-04-17T00:16:50.405Z,18.46
2023-04-17T00:17:51.276Z,18.47
2023-04-17T00:18:51.250Z,18.47
2023-04-17T00:19:51.238Z,18.47
2023-04-17T00:20:50.201Z,18.46
2023-04-17T00:21:50.205Z,18.47
2023-04-17T00:22:50.185Z,18.47
2023-04-17T00:23:50.181Z,18.47
2023-04-17T00:24:51.173Z,18.47
2023-04-17T00:25:50.173Z,18.48
2023-04-17T00:26:50.147Z,18.48
2023-04-17T00:27:50.337Z,18.48
2023-04-17T00:28:51.143Z,18.49
2023-04-17T00:29:51.134Z,18.48
2023-04-17T00:30:50.190Z,18.49
2023-04-17T00:31:50.267Z,18.49
2023-04-17T00:32:51.250Z,18.48
2023-04-17T00:33:50.264Z,18.49
2023-04-17T00:34:53.090Z,18.48
2023-04-17T00:35:50.313Z,18.48
2023-04-17T00:36:51.280Z,18.48
2023-04-17T00:37:50.288Z,18.49
2023-04-17T00:38:51.311Z,18.49
2023-04-17T00:39:51.288Z,18.49
2023-04-17T00:40:50.264Z,18.49
2023-04-17T00:41:50.231Z,18.50
2023-04-17T00:42:50.326Z,18.49
2023-04-17T00:43:51.246Z,18.49
2023-04-17T00:44:50.231Z,18.49
2023-04-17T00:45:51.312Z,18.49
2023-04-17T00:46:51.230Z,18.49
2023-04-17T00:47:50.272Z,18.50
2023-04-17T00:48:51.213Z,18.50
2023-04-17T00:49:51.295Z,18.50
2023-04-17T00:50:51.176Z,18.50
2023-04-17T00:51:51.170Z,18.50
2023-04-17T00:52:50.205Z,18.50
2023-04-17T00:53:51.162Z,18.51
2023-04-17T00:54:51.142Z,18.51
2023-04-17T00:55:50.135Z,18.50
2023-04-17T00:56:50.139Z,18.51
2023-04-17T00:57:51.179Z,18.50
2023-04-17T00:58:51.166Z,18.50
2023-04-17T00:59:51.126Z,18.51
2023-04-17T01:00:50.204Z,18.51
2023-04-17T01:01:50.132Z,18.51
2023-04-17T01:02:51.325Z,18.51
2023-04-17T01:03:50.324Z,18.51
2023-04-17T01:04:51.114Z,18.51
2023-04-17T01:05:50.077Z,18.51
2023-04-17T01:06:51.097Z,18.51
2023-04-17T01:07:50.087Z,18.52
2023-04-17T01:08:51.085Z,18.52
2023-04-17T01:09:51.048Z,18.52
2023-04-17T01:10:50.048Z,18.53
2023-04-17T01:11:51.020Z,18.52
2023-04-17T01:12:51.023Z,18.52
2023-04-17T01:13:51.045Z,18.53
2023-04-17T01:14:50.100Z,18.53
2023-04-17T01:15:51.108Z,18.53
2023-04-17T01:16:50.177Z,18.53
2023-04-17T01:17:50.217Z,18.53
2023-04-17T01:18:50.220Z,18.53
2023-04-17T01:19:50.235Z,18.53
2023-04-17T01:20:51.262Z,18.54
2023-04-17T01:21:51.294Z,18.54
2023-04-17T01:22:51.341Z,18.54
2023-04-17T01:23:51.347Z,18.55
2023-04-17T01:24:51.388Z,18.54
2023-04-17T01:25:51.417Z,18.54
2023-04-17T01:26:51.432Z,18.55
2023-04-17T01:27:51.457Z,18.55
2023-04-17T01:28:51.521Z,18.55
2023-04-17T01:29:51.536Z,18.55
2023-04-17T01:30:51.562Z,18.55
2023-04-17T01:31:51.611Z,18.55
2023-04-17T01:32:51.672Z,18.55
2023-04-17T01:33:50.659Z,18.55
2023-04-17T01:34:51.690Z,18.55
2023-04-17T01:35:50.699Z,18.55
2023-04-17T01:36:51.745Z,18.55
2023-04-17T01:37:51.746Z,18.54
2023-04-17T01:38:51.830Z,18.54
2023-04-17T01:39:51.830Z,18.54
2023-04-17T01:40:50.839Z,18.54
2023-04-17T01:41:50.852Z,18.54
2023-04-17T01:42:50.897Z,18.54
2023-04-17T01:43:50.912Z,18.54
2023-04-17T01:44:51.940Z,18.53
2023-04-17T01:45:50.996Z,18.54
2023-04-17T01:46:51.993Z,18.54
2023-04-17T01:47:52.041Z,18.54
2023-04-17T01:48:51.058Z,18.54
2023-04-17T01:49:52.064Z,18.54
2023-04-17T01:50:52.120Z,18.53
2023-04-17T01:51:52.118Z,18.53
2023-04-17T01:52:52.135Z,18.53
2023-04-17T01:53:51.212Z,18.54
2023-04-17T01:54:51.233Z,18.53
2023-04-17T01:55:51.281Z,18.53
2023-04-17T01:56:52.235Z,18.53
2023-04-17T01:57:52.260Z,18.53
2023-04-17T01:58:52.298Z,18.53
2023-04-17T01:59:52.324Z,18.52
2023-04-17T02:00:52.373Z,18.52
2023-04-17T02:01:51.552Z,18.52
2023-04-17T02:02:52.672Z,18.52
2023-04-17T02:03:52.622Z,18.52
2023-04-17T02:04:51.463Z,18.52
2023-04-17T02:05:52.576Z,18.52
2023-04-17T02:06:52.571Z,18.51
2023-04-17T02:07:52.543Z,18.51
2023-04-17T02:08:51.614Z,18.51
2023-04-17T02:09:52.615Z,18.51
2023-04-17T02:10:51.629Z,18.51
2023-04-17T02:11:52.665Z,18.50
2023-04-17T02:12:52.724Z,18.51
2023-04-17T02:13:51.734Z,18.51
2023-04-17T02:14:52.766Z,18.52
2023-04-17T02:15:52.822Z,18.51
2023-04-17T02:16:51.799Z,18.51
2023-04-17T02:17:51.884Z,18.51
2023-04-17T02:18:51.905Z,18.50
2023-04-17T02:19:52.906Z,18.50
2023-04-17T02:20:52.928Z,18.51
2023-04-17T02:21:51.958Z,18.51
2023-04-17T02:22:53.020Z,18.51
2023-04-17T02:23:52.021Z,18.51
2023-04-17T02:24:53.049Z,18.51
2023-04-17T02:25:53.066Z,18.51
2023-04-17T02:26:53.105Z,18.51
2023-04-17T02:27:52.140Z,18.51
2023-04-17T02:28:53.181Z,18.52
2023-04-17T02:29:53.198Z,18.52
2023-04-17T02:30:53.291Z,18.51
2023-04-17T02:31:53.371Z,18.52
2023-04-17T02:32:53.349Z,18.52
2023-04-17T02:33:52.337Z,18.53
2023-04-17T02:34:53.360Z,18.52
2023-04-17T02:35:53.437Z,18.52
2023-04-17T02:36:53.425Z,18.53
2023-04-17T02:37:52.462Z,18.52
2023-04-17T02:38:53.529Z,18.53
2023-04-17T02:39:52.588Z,18.53
2023-04-17T02:40:53.552Z,18.53
2023-04-17T02:41:52.563Z,18.53
2023-04-17T02:42:53.580Z,18.53
2023-04-17T02:43:53.754Z,18.53
2023-04-17T02:44:53.672Z,18.54
2023-04-17T02:45:52.686Z,18.53
2023-04-17T02:46:53.743Z,18.54
2023-04-17T02:47:53.766Z,18.54
2023-04-17T02:48:53.753Z,18.54
2023-04-17T02:49:53.804Z,18.55
2023-04-17T02:50:53.810Z,18.55
2023-04-17T02:51:53.921Z,18.55
2023-04-17T02:52:53.861Z,18.55
2023-04-17T02:53:53.879Z,18.55
2023-04-17T02:54:53.905Z,18.55
2023-04-17T02:55:53.948Z,18.55
2023-04-17T02:56:53.985Z,18.55
2023-04-17T02:57:53.945Z,18.55
2023-04-17T02:58:52.995Z,18.56
2023-04-17T02:59:52.983Z,18.55
2023-04-17T03:00:54.058Z,18.55
2023-04-17T03:01:54.195Z,18.55
2023-04-17T03:02:54.184Z,18.55
2023-04-17T03:03:53.524Z,18.55
2023-04-17T03:04:53.137Z,18.55
2023-04-17T03:05:53.165Z,18.54
2023-04-17T03:06:53.204Z,18.54
2023-04-17T03:07:54.224Z,18.54
2023-04-17T03:08:54.270Z,18.54
2023-04-17T03:09:54.288Z,18.54
2023-04-17T03:10:54.301Z,18.54
2023-04-17T03:11:54.307Z,18.54
2023-04-17T03:12:54.334Z,18.54
2023-04-17T03:13:54.410Z,18.54
2023-04-17T03:14:54.508Z,18.53
2023-04-17T03:15:54.429Z,18.54
2023-04-17T03:16:53.561Z,18.54
2023-04-17T03:17:53.560Z,18.53
2023-04-17T03:18:54.521Z,18.53
2023-04-17T03:19:54.531Z,18.53
2023-04-17T03:20:53.530Z,18.53
2023-04-17T03:21:54.549Z,18.53
2023-04-17T03:22:54.580Z,18.52
2023-04-17T03:23:53.610Z,18.53
2023-04-17T03:24:54.743Z,18.52
2023-04-17T03:25:54.688Z,18.52
2023-04-17T03:26:54.710Z,18.52
2023-04-17T03:27:54.711Z,18.52
2023-04-17T03:28:54.733Z,18.52
2023-04-17T03:29:53.775Z,18.52
2023-04-17T03:30:53.801Z,18.52
2023-04-17T03:31:54.870Z,18.52
2023-04-17T03:32:54.893Z,18.52
2023-04-17T03:33:54.886Z,18.53
2023-04-17T03:34:53.936Z,18.52
2023-04-17T03:35:54.953Z,18.53
2023-04-17T03:36:54.970Z,18.52
2023-04-17T03:37:55.001Z,18.52
2023-04-17T03:38:54.020Z,18.53
2023-04-17T03:39:54.051Z,18.53
2023-04-17T03:40:54.077Z,18.53
2023-04-17T03:41:55.115Z,18.53
2023-04-17T03:42:54.187Z,18.53
2023-04-17T03:43:54.184Z,18.53
2023-04-17T03:44:54.191Z,18.53
2023-04-17T03:45:54.309Z,18.53
2023-04-17T03:46:55.250Z,18.53
2023-04-17T03:47:54.340Z,18.52
2023-04-17T03:48:54.312Z,18.53
2023-04-17T03:49:55.352Z,18.53
2023-04-17T03:50:55.363Z,18.53
2023-04-17T03:51:55.393Z,18.53
2023-04-17T03:52:55.441Z,18.53
2023-04-17T03:53:55.510Z,18.52
2023-04-17T03:54:55.500Z,18.53
2023-04-17T03:55:55.503Z,18.53
2023-04-17T03:56:55.526Z,18.52
2023-04-17T03:57:55.561Z,18.53
2023-04-17T03:58:55.627Z,18.53
2023-04-17T03:59:55.612Z,18.53
2023-04-17T04:00:54.638Z,18.53
2023-04-17T04:01:54.687Z,18.53
2023-04-17T04:02:54.785Z,18.53
2023-04-17T04:03:55.829Z,18.54
2023-04-17T04:04:54.849Z,18.53
2023-04-17T04:05:54.822Z,18.53
2023-04-17T04:06:55.771Z,18.53
2023-04-17T04:07:55.784Z,18.53
2023-04-17T04:08:54.853Z,18.54
2023-04-17T04:09:55.842Z,18.53
2023-04-17T04:10:54.863Z,18.53
2023-04-17T04:11:55.904Z,18.54
2023-04-17T04:12:55.907Z,18.54
2023-04-17T04:13:55.931Z,18.54
2023-04-17T04:14:55.001Z,18.54
2023-04-17T04:15:55.046Z,18.54
2023-04-17T04:16:55.024Z,18.54
2023-04-17T04:17:56.090Z,18.55
2023-04-17T04:18:56.074Z,18.54
2023-04-17T04:19:55.100Z,18.55
2023-04-17T04:20:56.157Z,18.54
2023-04-17T04:21:56.161Z,18.55
2023-04-17T04:22:55.186Z,18.55
2023-04-17T04:23:55.208Z,18.55
2023-04-17T04:24:56.237Z,18.55
2023-04-17T04:25:56.271Z,18.54
2023-04-17T04:26:56.303Z,18.55
2023-04-17T04:27:56.304Z,18.54
2023-04-17T04:28:55.317Z,18.55
2023-04-17T04:29:55.360Z,18.56
2023-04-17T04:30:56.402Z,18.56
2023-04-17T04:31:56.473Z,18.56
2023-04-17T04:32:56.493Z,18.56
2023-04-17T04:33:56.438Z,18.56
2023-04-17T04:34:56.458Z,18.55
2023-04-17T04:35:56.471Z,18.55
2023-04-17T04:36:56.499Z,18.55
2023-04-17T04:37:56.531Z,18.56
2023-04-17T04:38:56.560Z,18.55
2023-04-17T04:39:56.587Z,18.57
2023-04-17T04:40:55.592Z,18.56
2023-04-17T04:41:55.639Z,18.56
2023-04-17T04:42:56.635Z,18.56
2023-04-17T04:43:56.670Z,18.56
2023-04-17T04:44:55.682Z,18.57
2023-04-17T04:45:55.695Z,18.57
2023-04-17T04:46:56.890Z,18.57
2023-04-17T04:47:56.767Z,18.57
2023-04-17T04:48:56.763Z,18.58
2023-04-17T04:49:56.782Z,18.58
2023-04-17T04:50:56.801Z,18.58
2023-04-17T04:51:56.815Z,18.58
2023-04-17T04:52:55.833Z,18.59
2023-04-17T04:53:55.851Z,18.59
2023-04-17T04:54:56.882Z,18.59
2023-04-17T04:55:55.899Z,18.59
2023-04-17T04:56:55.908Z,18.60
2023-04-17T04:57:55.919Z,18.59
2023-04-17T04:58:56.928Z,18.60
2023-04-17T04:59:56.968Z,18.59
2023-04-17T05:00:56.979Z,18.60
2023-04-17T05:01:57.138Z,18.60
2023-04-17T05:02:56.199Z,18.61
2023-04-17T05:03:57.239Z,18.61
2023-04-17T05:04:56.240Z,18.61
2023-04-17T05:05:56.094Z,18.61
2023-04-17T05:06:56.135Z,18.61
2023-04-17T05:07:56.162Z,18.61
2023-04-17T05:08:57.128Z,18.61
2023-04-17T05:09:56.187Z,18.62
2023-04-17T05:10:57.250Z,18.62
2023-04-17T05:11:57.262Z,18.62
2023-04-17T05:12:56.229Z,18.63
2023-04-17T05:13:56.243Z,18.63
2023-04-17T05:14:57.299Z,18.62
2023-04-17T05:15:58.557Z,18.63
2023-04-17T05:16:57.272Z,18.63
2023-04-17T05:17:57.322Z,18.63
2023-04-17T05:18:56.284Z,18.63
2023-04-17T05:19:56.279Z,18.63
2023-04-17T05:20:57.276Z,18.63
2023-04-17T05:21:57.288Z,18.64
2023-04-17T05:22:56.260Z,18.65
2023-04-17T05:23:57.212Z,18.65
2023-04-17T05:24:57.236Z,18.66
2023-04-17T05:25:56.225Z,18.67
2023-04-17T05:26:57.227Z,18.69
2023-04-17T05:27:56.195Z,18.70
2023-04-17T05:28:57.246Z,18.70
2023-04-17T05:29:56.207Z,18.72
2023-04-17T05:30:56.194Z,18.74
2023-04-17T05:31:56.182Z,18.75
2023-04-17T05:32:57.206Z,18.79
2023-04-17T05:33:57.172Z,18.81
2023-04-17T05:34:57.284Z,18.84
2023-04-17T05:35:57.148Z,18.88
2023-04-17T05:36:56.166Z,18.91
2023-04-17T05:37:57.153Z,18.95
2023-04-17T05:38:57.119Z,18.97
2023-04-17T05:39:56.149Z,18.99
2023-04-17T05:40:57.113Z,19.03
2023-04-17T05:41:57.127Z,19.06
2023-04-17T05:42:57.130Z,19.07
2023-04-17T05:43:56.103Z,19.10
2023-04-17T05:44:56.100Z,19.13
2023-04-17T05:45:56.235Z,19.15
2023-04-17T05:46:56.101Z,19.18
2023-04-17T05:47:56.184Z,19.22
2023-04-17T05:48:57.051Z,19.28
2023-04-17T05:49:57.060Z,19.33
2023-04-17T05:50:57.081Z,19.37
2023-04-17T05:51:57.058Z,19.42
2023-04-17T05:52:56.087Z,19.45
2023-04-17T05:53:57.888Z,19.51
2023-04-17T05:54:56.033Z,19.57
2023-04-17T05:55:57.490Z,19.59
2023-04-17T05:56:57.072Z,19.66
2023-04-17T05:57:58.334Z,19.71
2023-04-17T05:59:03.694Z,19.77
2023-04-17T05:59:57.195Z,19.82
2023-04-17T06:00:56.177Z,19.91
2023-04-17T06:01:56.236Z,19.98
2023-04-17T06:02:56.351Z,20.04
2023-04-17T06:03:57.688Z,20.09
2023-04-17T06:04:56.319Z,20.13
2023-04-17T06:05:57.251Z,20.12
2023-04-17T06:06:57.169Z,20.11
2023-04-17T06:07:56.133Z,20.11
2023-04-17T06:08:56.118Z,20.16
2023-04-17T06:09:57.105Z,20.18
2023-04-17T06:10:57.116Z,20.18
2023-04-17T06:11:56.094Z,20.17
2023-04-17T06:12:56.122Z,20.17
2023-04-17T06:13:56.091Z,20.14
2023-04-17T06:14:57.083Z,20.13
2023-04-17T06:15:56.074Z,20.16
2023-04-17T06:16:57.142Z,20.19
2023-04-17T06:17:56.093Z,20.24
2023-04-17T06:18:56.047Z,20.20
2023-04-17T06:19:57.069Z,20.18
2023-04-17T06:20:57.028Z,20.18
2023-04-17T06:21:57.026Z,20.21
2023-04-17T06:22:57.155Z,20.20
2023-04-17T06:23:56.005Z,20.19
2023-04-17T06:24:57.006Z,20.18
2023-04-17T06:25:55.996Z,20.17
2023-04-17T06:26:56.992Z,20.15
2023-04-17T06:27:56.995Z,20.08
2023-04-17T06:28:55.992Z,20.07
2023-04-17T06:29:57.002Z,20.10
2023-04-17T06:30:57.021Z,20.14
2023-04-17T06:31:56.945Z,20.17
2023-04-17T06:32:56.992Z,20.22
2023-04-17T06:33:56.942Z,20.25
2023-04-17T06:34:59.512Z,20.29
2023-04-17T06:35:55.930Z,20.32
2023-04-17T06:36:56.924Z,20.36
2023-04-17T06:37:56.911Z,20.40
2023-04-17T06:38:55.932Z,20.47
2023-04-17T06:39:55.920Z,20.51
2023-04-17T06:40:56.890Z,20.56
2023-04-17T06:41:56.895Z,20.59
2023-04-17T06:42:55.870Z,20.61
2023-04-17T06:43:56.877Z,20.67
2023-04-17T06:44:56.845Z,20.68
2023-04-17T06:45:55.876Z,20.71
2023-04-17T06:46:56.835Z,20.71
2023-04-17T06:47:56.898Z,20.73
2023-04-17T06:48:56.885Z,20.73
2023-04-17T06:49:56.817Z,20.74
2023-04-17T06:50:56.820Z,20.76
2023-04-17T06:51:55.820Z,20.80
2023-04-17T06:52:56.860Z,20.82
2023-04-17T06:53:56.780Z,20.83
2023-04-17T06:54:55.929Z,20.83
2023-04-17T06:55:56.922Z,20.83
2023-04-17T06:56:56.793Z,20.87
2023-04-17T06:57:56.766Z,20.93
2023-04-17T06:58:55.776Z,20.97
2023-04-17T06:59:56.751Z,20.99
2023-04-17T07:00:56.735Z,21.01
2023-04-17T07:01:55.786Z,21.03
2023-04-17T07:02:55.829Z,21.06
2023-04-17T07:03:56.854Z,21.11
2023-04-17T07:04:56.736Z,21.19
2023-04-17T07:05:55.746Z,21.29
2023-04-17T07:06:55.777Z,21.40
2023-04-17T07:07:56.856Z,21.49
2023-04-17T07:08:56.874Z,21.53
2023-04-17T07:09:56.926Z,21.60
2023-04-17T07:10:57.113Z,21.61
2023-04-17T07:11:57.011Z,21.62
2023-04-17T07:12:56.066Z,21.59
2023-04-17T07:13:57.069Z,21.60
2023-04-17T07:14:57.116Z,21.59
2023-04-17T07:15:57.191Z,21.64
2023-04-17T07:16:57.146Z,21.68
2023-04-17T07:17:57.370Z,21.71
2023-04-17T07:18:57.247Z,21.69
2023-04-17T07:19:56.253Z,21.65
2023-04-17T07:20:56.286Z,21.64
2023-04-17T07:21:57.306Z,21.62
2023-04-17T07:22:57.316Z,21.61
2023-04-17T07:23:57.374Z,21.59
2023-04-17T07:24:57.404Z,21.51
2023-04-17T07:25:57.475Z,21.40
2023-04-17T07:26:57.532Z,21.25
2023-04-17T07:27:57.612Z,21.17
2023-04-17T07:28:56.616Z,20.96
2023-04-17T07:29:56.647Z,20.79
2023-04-17T07:30:57.644Z,20.61
2023-04-17T07:31:57.706Z,20.48
2023-04-17T07:32:56.705Z,20.33
2023-04-17T07:33:57.696Z,20.26
2023-04-17T07:34:56.732Z,20.18
2023-04-17T07:35:57.793Z,20.10
2023-04-17T07:36:57.792Z,20.05
2023-04-17T07:37:57.851Z,20.01
2023-04-17T07:38:57.899Z,19.96
2023-04-17T07:39:57.950Z,19.91
2023-04-17T07:40:57.008Z,19.88
2023-04-17T07:41:58.064Z,19.84
2023-04-17T07:42:57.165Z,19.85
2023-04-17T07:43:59.152Z,19.86
2023-04-17T07:44:57.276Z,19.88
2023-04-17T07:45:58.326Z,19.89
2023-04-17T07:46:58.412Z,19.82
2023-04-17T07:47:58.457Z,19.69
2023-04-17T07:48:58.433Z,19.47
2023-04-17T07:49:58.471Z,18.99
2023-04-17T07:50:58.887Z,18.44
2023-04-17T07:51:58.505Z,18.05
2023-04-17T07:52:57.597Z,17.73
2023-04-17T07:53:58.564Z,17.51
2023-04-17T07:54:58.610Z,17.27
2023-04-17T07:55:58.670Z,17.07
2023-04-17T07:56:58.705Z,16.92
2023-04-17T07:57:58.745Z,16.75
2023-04-17T07:58:58.766Z,16.61
2023-04-17T07:59:58.747Z,16.59
2023-04-17T08:00:58.819Z,16.52
2023-04-17T08:01:58.869Z,16.45
2023-04-17T08:02:59.040Z,16.38
2023-04-17T08:03:59.319Z,16.28
2023-04-17T08:04:57.906Z,16.22
2023-04-17T08:05:58.820Z,16.18
2023-04-17T08:06:58.800Z,16.15
2023-04-17T08:07:58.803Z,16.12
2023-04-17T08:08:57.810Z,16.09
2023-04-17T08:09:58.814Z,16.10
2023-04-17T08:10:58.830Z,16.02
2023-04-17T08:11:58.361Z,15.99
2023-04-17T08:12:58.859Z,16.00
2023-04-17T08:13:58.890Z,15.97
2023-04-17T08:14:58.945Z,15.87
2023-04-17T08:15:57.928Z,15.82
2023-04-17T08:16:58.046Z,15.77
2023-04-17T08:17:58.017Z,15.66
2023-04-17T08:18:59.005Z,15.68
2023-04-17T08:19:59.053Z,15.67
2023-04-17T08:20:59.109Z,15.64
2023-04-17T08:21:58.118Z,15.62
2023-04-17T08:22:59.157Z,15.60
2023-04-17T08:23:58.201Z,15.58
2023-04-17T08:24:59.238Z,15.65
2023-04-17T08:25:59.254Z,15.69
2023-04-17T08:26:58.269Z,15.67
2023-04-17T08:27:58.307Z,15.65
2023-04-17T08:28:59.330Z,15.65
2023-04-17T08:29:59.344Z,15.64
2023-04-17T08:30:59.624Z,15.61
2023-04-17T08:32:13.480Z,15.60
2023-04-17T08:32:59.404Z,15.63
2023-04-17T08:34:06.613Z,15.65
2023-04-17T08:34:59.367Z,15.63
2023-04-17T08:36:01.443Z,15.62
2023-04-17T08:36:59.351Z,15.56
2023-04-17T08:37:58.373Z,15.55
2023-04-17T08:38:59.362Z,15.55
2023-04-17T08:39:59.334Z,15.51
2023-04-17T08:40:59.345Z,15.48
2023-04-17T08:41:59.330Z,15.48
2023-04-17T08:42:59.328Z,15.52
2023-04-17T08:43:58.311Z,15.71
2023-04-17T08:44:59.308Z,16.07
2023-04-17T08:45:58.349Z,16.55
2023-04-17T08:46:59.321Z,17.00
2023-04-17T08:47:58.328Z,17.43
2023-04-17T08:48:59.289Z,17.81
2023-04-17T08:49:58.273Z,18.15
2023-04-17T08:50:59.321Z,18.39
2023-04-17T08:51:59.249Z,18.65
2023-04-17T08:52:59.253Z,18.83
2023-04-17T08:53:59.235Z,18.90
2023-04-17T08:54:59.235Z,18.79
2023-04-17T08:55:59.237Z,18.80
2023-04-17T08:56:59.206Z,18.90
2023-04-17T08:57:59.222Z,18.94
2023-04-17T08:58:59.199Z,19.01
2023-04-17T08:59:58.199Z,19.09
2023-04-17T09:00:58.182Z,19.20
2023-04-17T09:01:58.308Z,19.29
2023-04-17T09:02:59.494Z,19.38
2023-04-17T09:03:58.362Z,19.47
2023-04-17T09:04:59.315Z,19.54
2023-04-17T09:05:58.175Z,19.60
2023-04-17T09:06:59.134Z,19.66
2023-04-17T09:07:59.182Z,19.72
2023-04-17T09:08:58.227Z,19.80
2023-04-17T09:09:59.298Z,19.86
2023-04-17T09:10:58.349Z,19.91
2023-04-17T09:11:58.417Z,19.97
2023-04-17T09:12:59.481Z,20.02
2023-04-17T09:13:58.542Z,20.07
2023-04-17T09:14:59.601Z,20.12
2023-04-17T09:15:59.684Z,20.15
2023-04-17T09:16:59.699Z,20.20
2023-04-17T09:17:58.831Z,20.24
2023-04-17T09:18:59.826Z,20.28
2023-04-17T09:19:58.855Z,20.31
2023-04-17T09:20:59.920Z,20.33
2023-04-17T09:21:58.983Z,20.37
2023-04-17T09:23:00.020Z,20.40
2023-04-17T09:24:00.106Z,20.42
2023-04-17T09:25:00.124Z,20.44
2023-04-17T09:25:59.147Z,20.47
2023-04-17T09:27:00.175Z,20.48
2023-04-17T09:28:00.236Z,20.51
2023-04-17T09:28:59.262Z,20.53
2023-04-17T09:30:00.303Z,20.56
2023-04-17T09:31:00.350Z,20.59
2023-04-17T09:32:00.436Z,20.62
2023-04-17T09:32:59.459Z,20.64
2023-04-17T09:33:59.537Z,20.67
2023-04-17T09:35:00.731Z,20.69
2023-04-17T09:35:59.525Z,20.70
2023-04-17T09:36:59.541Z,20.74
2023-04-17T09:38:00.571Z,20.77
2023-04-17T09:39:00.596Z,20.78
2023-04-17T09:39:59.684Z,20.80
2023-04-17T09:40:59.658Z,20.84
2023-04-17T09:42:02.997Z,20.87
2023-04-17T09:43:00.706Z,20.88
2023-04-17T09:44:00.654Z,20.89
2023-04-17T09:45:01.431Z,20.91
2023-04-17T09:45:59.653Z,20.93
2023-04-17T09:47:00.846Z,20.93
2023-04-17T09:48:00.692Z,20.93
2023-04-17T09:49:00.634Z,20.91
2023-04-17T09:50:00.627Z,20.91
2023-04-17T09:51:00.195Z,20.88
2023-04-17T09:51:59.634Z,20.87
2023-04-17T09:52:59.590Z,20.89
2023-04-17T09:53:59.593Z,20.89
2023-04-17T09:54:59.590Z,20.90
2023-04-17T09:56:00.588Z,20.90
2023-04-17T09:56:59.591Z,20.93
2023-04-17T09:58:00.559Z,20.95
2023-04-17T09:59:00.549Z,20.98
2023-04-17T09:59:59.552Z,21.00
2023-04-17T10:01:00.615Z,21.01
2023-04-17T10:02:00.693Z,21.01
2023-04-17T10:02:59.849Z,21.03
2023-04-17T10:03:59.955Z,21.06
2023-04-17T10:04:59.692Z,21.06
2023-04-17T10:05:59.739Z,21.09
2023-04-17T10:07:00.931Z,21.13
2023-04-17T10:08:00.793Z,21.15
2023-04-17T10:09:00.805Z,21.17
2023-04-17T10:10:00.836Z,21.16
2023-04-17T10:11:00.855Z,21.17
2023-04-17T10:11:59.894Z,21.17
2023-04-17T10:13:00.922Z,21.16
2023-04-17T10:14:00.956Z,21.16
2023-04-17T10:14:59.990Z,21.16
2023-04-17T10:16:01.082Z,21.15
2023-04-17T10:17:01.065Z,21.14
2023-04-17T10:18:01.176Z,21.14
2023-04-17T10:19:01.125Z,21.14
2023-04-17T10:20:01.147Z,21.12
2023-04-17T10:21:01.202Z,21.12
2023-04-17T10:22:01.225Z,21.14
2023-04-17T10:23:00.279Z,21.19
2023-04-17T10:24:00.305Z,21.22
2023-04-17T10:25:01.382Z,21.23
2023-04-17T10:26:01.371Z,21.24
2023-04-17T10:27:00.423Z,21.24
2023-04-17T10:28:01.449Z,21.24
2023-04-17T10:29:01.502Z,21.26
2023-04-17T10:30:01.548Z,21.28
2023-04-17T10:31:01.571Z,21.31
2023-04-17T10:32:00.691Z,21.33
2023-04-17T10:33:01.677Z,21.35
2023-04-17T10:34:01.678Z,21.36
2023-04-17T10:35:01.714Z,21.37
2023-04-17T10:36:00.739Z,21.39
2023-04-17T10:37:01.743Z,21.41
2023-04-17T10:38:01.765Z,21.42
2023-04-17T10:39:00.881Z,21.42
2023-04-17T10:40:01.836Z,21.43
2023-04-17T10:41:01.777Z,21.45
2023-04-17T10:42:01.937Z,21.46
2023-04-17T10:43:01.841Z,21.49
2023-04-17T10:44:01.849Z,21.49
2023-04-17T10:45:00.872Z,21.47
2023-04-17T10:46:02.066Z,21.44
2023-04-17T10:47:02.442Z,21.38
2023-04-17T10:48:02.044Z,21.32
2023-04-17T10:49:00.995Z,21.27
2023-04-17T10:50:02.046Z,21.22
2023-04-17T10:51:02.106Z,21.16
2023-04-17T10:52:01.154Z,21.13
2023-04-17T10:53:01.209Z,21.08
2023-04-17T10:54:01.277Z,21.04
2023-04-17T10:55:01.362Z,21.02
2023-04-17T10:56:01.377Z,20.99
2023-04-17T10:57:02.438Z,20.96
2023-04-17T10:58:02.553Z,20.93
2023-04-17T10:59:01.540Z,20.91
2023-04-17T11:00:01.606Z,20.89
2023-04-17T11:01:02.728Z,20.86
2023-04-17T11:02:02.854Z,20.85
2023-04-17T11:03:02.016Z,20.83
2023-04-17T11:04:02.016Z,20.81
2023-04-17T11:05:03.037Z,20.81
2023-04-17T11:06:02.997Z,20.79
2023-04-17T11:07:03.175Z,20.78
2023-04-17T11:08:02.110Z,20.77
2023-04-17T11:09:02.182Z,20.76
2023-04-17T11:10:03.232Z,20.75
2023-04-17T11:11:03.269Z,20.74
2023-04-17T11:12:03.289Z,20.71
2023-04-17T11:13:02.305Z,20.70
2023-04-17T11:14:02.320Z,20.69
2023-04-17T11:15:03.348Z,20.68
2023-04-17T11:16:02.367Z,20.67
2023-04-17T11:17:02.571Z,20.67
2023-04-17T11:18:03.505Z,20.65
2023-04-17T11:19:03.442Z,20.64
2023-04-17T11:20:03.480Z,20.62
2023-04-17T11:21:03.504Z,20.62
2023-04-17T11:22:03.512Z,20.61
2023-04-17T11:23:03.577Z,20.59
2023-04-17T11:24:03.554Z,20.58
2023-04-17T11:25:02.579Z,20.57
2023-04-17T11:26:03.760Z,20.56
2023-04-17T11:27:03.939Z,20.54
2023-04-17T11:28:02.674Z,20.52
2023-04-17T11:29:03.667Z,20.51
2023-04-17T11:30:02.690Z,20.49
2023-04-17T11:31:02.729Z,20.49
2023-04-17T11:32:02.772Z,20.48
2023-04-17T11:33:03.704Z,20.46
2023-04-17T11:34:03.693Z,20.45
2023-04-17T11:35:02.694Z,20.44
2023-04-17T11:36:03.699Z,20.43
2023-04-17T11:37:03.959Z,20.42
2023-04-17T11:38:03.671Z,20.41
2023-04-17T11:39:03.668Z,20.40
2023-04-17T11:40:02.688Z,20.39
2023-04-17T11:41:03.681Z,20.38
2023-04-17T11:42:02.731Z,20.37
2023-04-17T11:43:02.672Z,20.35
2023-04-17T11:44:03.657Z,20.35
2023-04-17T11:45:04.509Z,20.33
2023-04-17T11:46:03.719Z,20.32
2023-04-17T11:47:03.686Z,20.32
2023-04-17T11:48:02.713Z,20.31
2023-04-17T11:49:03.705Z,20.30
2023-04-17T11:50:02.696Z,20.29
2023-04-17T11:51:03.745Z,20.28
2023-04-17T11:52:03.707Z,20.28
2023-04-17T11:53:04.462Z,20.28
2023-04-17T11:54:03.722Z,20.28
2023-04-17T11:55:02.732Z,20.26
2023-04-17T11:56:03.748Z,20.27
2023-04-17T11:57:02.761Z,20.25
2023-04-17T11:58:03.794Z,20.25
2023-04-17T11:59:03.769Z,20.25
2023-04-17T12:00:03.826Z,20.24
2023-04-17T12:01:03.821Z,20.23
2023-04-17T12:02:02.897Z,20.23
2023-04-17T12:03:03.936Z,20.22
2023-04-17T12:04:04.168Z,20.21
2023-04-17T12:05:04.108Z,20.19
2023-04-17T12:06:03.902Z,20.19
2023-04-17T12:07:03.997Z,20.18
2023-04-17T12:08:03.970Z,20.20
2023-04-17T12:09:03.987Z,20.24
2023-04-17T12:10:03.022Z,20.28
2023-04-17T12:11:03.027Z,20.31
2023-04-17T12:12:03.102Z,20.33
2023-04-17T12:13:04.068Z,20.37
2023-04-17T12:14:03.105Z,20.41
2023-04-17T12:15:03.096Z,20.44
2023-04-17T12:16:03.200Z,20.45
2023-04-17T12:17:04.329Z,20.46
2023-04-17T12:18:04.388Z,20.47
2023-04-17T12:19:04.132Z,20.48
2023-04-17T12:20:03.175Z,20.48
2023-04-17T12:21:03.143Z,20.50
2023-04-17T12:22:04.218Z,20.51
2023-04-17T12:23:03.171Z,20.51
2023-04-17T12:24:03.176Z,20.51
2023-04-17T12:25:04.204Z,20.51
2023-04-17T12:26:03.215Z,20.50
2023-04-17T12:27:03.239Z,20.49
2023-04-17T12:28:04.260Z,20.48
2023-04-17T12:29:04.301Z,20.40
2023-04-17T12:30:04.317Z,20.36
2023-04-17T12:31:03.316Z,20.33
2023-04-17T12:32:04.409Z,20.30
2023-04-17T12:33:04.526Z,20.28
2023-04-17T12:34:03.403Z,20.27
2023-04-17T12:35:03.445Z,20.27
2023-04-17T12:36:03.485Z,20.26
2023-04-17T12:37:04.499Z,20.26
2023-04-17T12:38:04.529Z,20.25
2023-04-17T12:39:04.533Z,20.25
2023-04-17T12:40:04.555Z,20.25
2023-04-17T12:41:04.593Z,20.25
2023-04-17T12:42:03.599Z,20.25
2023-04-17T12:43:04.641Z,20.23
2023-04-17T12:44:04.682Z,20.24
2023-04-17T12:45:04.682Z,20.23
2023-04-17T12:46:04.781Z,20.23
2023-04-17T12:47:03.723Z,20.24
2023-04-17T12:48:04.800Z,20.22
2023-04-17T12:49:03.734Z,20.22
2023-04-17T12:50:03.777Z,20.22
2023-04-17T12:51:03.779Z,20.21
2023-04-17T12:52:04.834Z,20.21
2023-04-17T12:53:03.813Z,20.19